sensor_id;sensor_type;location;lat;lon;timestamp;pressure;altitude;pressure_sealevel;temperature;humidity
49297;BME280;35163;48.878;18.040;2023-06-04T00:02:10;98639.41;;;15.82;47.97
49297;BME280;35163;48.878;18.040;2023-06-04T00:04:37;98635.31;;;15.76;48.35
49297;BME280;35163;48.878;18.040;2023-06-04T00:07:05;98631.34;;;15.69;48.70
49297;BME280;35163;48.878;18.040;2023-06-04T00:09:32;98630.44;;;15.70;48.49
49297;BME280;35163;48.878;18.040;2023-06-04T00:11:58;98629.50;;;15.53;49.08
49297;BME280;35163;48.878;18.040;2023-06-04T00:14:25;98626.59;;;15.60;48.49
49297;BME280;35163;48.878;18.040;2023-06-04T00:16:52;98621.59;;;15.55;49.11
49297;BME280;35163;48.878;18.040;2023-06-04T00:19:19;98623.03;;;15.43;49.94
49297;BME280;35163;48.878;18.040;2023-06-04T00:21:46;98624.41;;;15.33;50.10
49297;BME280;35163;48.878;18.040;2023-06-04T00:24:12;98626.47;;;15.26;50.42
49297;BME280;35163;48.878;18.040;2023-06-04T00:26:39;98623.31;;;15.19;50.53
49297;BME280;35163;48.878;18.040;2023-06-04T00:29:06;98627.03;;;15.13;51.20
49297;BME280;35163;48.878;18.040;2023-06-04T00:31:33;98627.59;;;15.20;51.04
49297;BME280;35163;48.878;18.040;2023-06-04T00:33:59;98620.22;;;15.11;51.11
49297;BME280;35163;48.878;18.040;2023-06-04T00:36:26;98624.56;;;15.10;51.04
49297;BME280;35163;48.878;18.040;2023-06-04T00:38:53;98629.84;;;15.09;50.92
49297;BME280;35163;48.878;18.040;2023-06-04T00:41:20;98625.84;;;15.01;51.56
49297;BME280;35163;48.878;18.040;2023-06-04T00:43:46;98625.06;;;14.99;51.62
49297;BME280;35163;48.878;18.040;2023-06-04T00:46:24;98625.66;;;14.87;52.06
49297;BME280;35163;48.878;18.040;2023-06-04T00:48:52;98622.13;;;14.88;52.28
49297;BME280;35163;48.878;18.040;2023-06-04T00:51:19;98627.78;;;14.77;52.47
49297;BME280;35163;48.878;18.040;2023-06-04T00:53:50;98623.66;;;14.73;52.93
49297;BME280;35163;48.878;18.040;2023-06-04T00:56:20;98625.53;;;14.69;52.71
49297;BME280;35163;48.878;18.040;2023-06-04T00:58:47;98621.94;;;14.72;52.70
49297;BME280;35163;48.878;18.040;2023-06-04T01:01:29;98629.25;;;14.63;52.92
49297;BME280;35163;48.878;18.040;2023-06-04T01:04:00;98617.09;;;14.64;53.13
49297;BME280;35163;48.878;18.040;2023-06-04T01:06:36;98623.28;;;14.61;53.26
49297;BME280;35163;48.878;18.040;2023-06-04T01:09:05;98634.94;;;14.52;53.06
49297;BME280;35163;48.878;18.040;2023-06-04T01:11:36;98624.66;;;14.49;53.24
49297;BME280;35163;48.878;18.040;2023-06-04T01:14:04;98634.50;;;14.42;53.21
49297;BME280;35163;48.878;18.040;2023-06-04T01:16:55;98625.50;;;14.50;54.24
49297;BME280;35163;48.878;18.040;2023-06-04T01:22:14;98624.72;;;14.48;53.45
49297;BME280;35163;48.878;18.040;2023-06-04T01:24:53;98622.63;;;14.37;53.81
49297;BME280;35163;48.878;18.040;2023-06-04T01:27:22;98621.84;;;14.34;53.94
49297;BME280;35163;48.878;18.040;2023-06-04T01:29:49;98627.03;;;14.34;53.98
49297;BME280;35163;48.878;18.040;2023-06-04T01:32:17;98620.47;;;14.26;54.03
49297;BME280;35163;48.878;18.040;2023-06-04T01:34:45;98628.06;;;14.30;54.23
49297;BME280;35163;48.878;18.040;2023-06-04T01:37:12;98621.19;;;14.29;54.00
49297;BME280;35163;48.878;18.040;2023-06-04T01:39:39;98624.81;;;14.25;53.64
49297;BME280;35163;48.878;18.040;2023-06-04T01:42:07;98627.50;;;14.24;53.95
49297;BME280;35163;48.878;18.040;2023-06-04T01:44:34;98622.38;;;14.22;54.11
49297;BME280;35163;48.878;18.040;2023-06-04T01:47:01;98623.56;;;14.15;54.11
49297;BME280;35163;48.878;18.040;2023-06-04T01:49:27;98624.78;;;14.06;54.44
49297;BME280;35163;48.878;18.040;2023-06-04T01:51:54;98622.50;;;13.98;54.59
49297;BME280;35163;48.878;18.040;2023-06-04T01:54:22;98627.69;;;13.98;54.45
49297;BME280;35163;48.878;18.040;2023-06-04T01:56:49;98621.72;;;13.96;54.30
49297;BME280;35163;48.878;18.040;2023-06-04T01:59:16;98628.63;;;13.97;54.74
49297;BME280;35163;48.878;18.040;2023-06-04T02:01:42;98617.84;;;13.85;54.98
49297;BME280;35163;48.878;18.040;2023-06-04T02:04:09;98622.56;;;13.96;54.67
49297;BME280;35163;48.878;18.040;2023-06-04T02:06:36;98623.44;;;13.97;54.85
49297;BME280;35163;48.878;18.040;2023-06-04T02:09:03;98627.13;;;13.91;55.03
49297;BME280;35163;48.878;18.040;2023-06-04T02:11:30;98621.34;;;13.84;54.75
49297;BME280;35163;48.878;18.040;2023-06-04T02:13:57;98633.38;;;13.87;55.21
49297;BME280;35163;48.878;18.040;2023-06-04T02:16:23;98626.91;;;13.96;54.66
49297;BME280;35163;48.878;18.040;2023-06-04T02:18:52;98629.78;;;13.90;54.86
49297;BME280;35163;48.878;18.040;2023-06-04T02:21:19;98637.06;;;13.81;55.65
49297;BME280;35163;48.878;18.040;2023-06-04T02:23:45;98629.31;;;13.80;55.38
49297;BME280;35163;48.878;18.040;2023-06-04T02:26:12;98639.00;;;13.76;55.82
49297;BME280;35163;48.878;18.040;2023-06-04T02:28:39;98633.00;;;13.74;55.97
49297;BME280;35163;48.878;18.040;2023-06-04T02:31:06;98625.88;;;13.79;55.61
49297;BME280;35163;48.878;18.040;2023-06-04T02:33:33;98630.28;;;13.77;55.76
49297;BME280;35163;48.878;18.040;2023-06-04T02:36:00;98627.88;;;13.72;56.25
49297;BME280;35163;48.878;18.040;2023-06-04T02:38:27;98629.31;;;13.80;56.07
49297;BME280;35163;48.878;18.040;2023-06-04T02:40:54;98632.00;;;13.78;55.78
49297;BME280;35163;48.878;18.040;2023-06-04T02:43:20;98622.88;;;13.68;56.65
49297;BME280;35163;48.878;18.040;2023-06-04T02:45:47;98631.63;;;13.65;56.66
49297;BME280;35163;48.878;18.040;2023-06-04T02:48:14;98635.63;;;13.74;56.02
49297;BME280;35163;48.878;18.040;2023-06-04T02:50:41;98630.47;;;13.72;56.31
49297;BME280;35163;48.878;18.040;2023-06-04T02:53:08;98628.94;;;13.68;56.78
49297;BME280;35163;48.878;18.040;2023-06-04T02:55:35;98631.78;;;13.62;57.38
49297;BME280;35163;48.878;18.040;2023-06-04T02:58:05;98640.47;;;13.61;56.78
49297;BME280;35163;48.878;18.040;2023-06-04T03:00:35;98628.50;;;13.57;56.67
49297;BME280;35163;48.878;18.040;2023-06-04T03:03:02;98634.56;;;13.57;57.22
49297;BME280;35163;48.878;18.040;2023-06-04T03:05:29;98632.75;;;13.59;56.95
49297;BME280;35163;48.878;18.040;2023-06-04T03:08:01;98636.13;;;13.62;56.68
49297;BME280;35163;48.878;18.040;2023-06-04T03:10:29;98634.31;;;13.64;56.71
49297;BME280;35163;48.878;18.040;2023-06-04T03:12:57;98635.22;;;13.63;57.54
49297;BME280;35163;48.878;18.040;2023-06-04T03:15:24;98636.00;;;13.65;56.75
49297;BME280;35163;48.878;18.040;2023-06-04T03:17:50;98636.13;;;13.62;57.39
49297;BME280;35163;48.878;18.040;2023-06-04T03:20:17;98639.63;;;13.60;57.22
49297;BME280;35163;48.878;18.040;2023-06-04T03:22:44;98639.50;;;13.64;57.21
49297;BME280;35163;48.878;18.040;2023-06-04T03:25:11;98649.72;;;13.68;56.63
49297;BME280;35163;48.878;18.040;2023-06-04T03:27:38;98654.00;;;13.69;56.77
49297;BME280;35163;48.878;18.040;2023-06-04T03:30:05;98654.84;;;13.70;56.79
49297;BME280;35163;48.878;18.040;2023-06-04T03:32:32;98660.94;;;13.69;57.31
49297;BME280;35163;48.878;18.040;2023-06-04T03:35:00;98663.53;;;13.69;57.30
49297;BME280;35163;48.878;18.040;2023-06-04T03:37:26;98662.00;;;13.65;57.57
49297;BME280;35163;48.878;18.040;2023-06-04T03:39:54;98660.81;;;13.72;57.12
49297;BME280;35163;48.878;18.040;2023-06-04T03:42:20;98660.06;;;13.70;57.20
49297;BME280;35163;48.878;18.040;2023-06-04T03:44:47;98665.91;;;13.75;56.80
49297;BME280;35163;48.878;18.040;2023-06-04T03:47:14;98671.09;;;13.75;56.57
49297;BME280;35163;48.878;18.040;2023-06-04T03:49:41;98671.88;;;13.77;56.72
49297;BME280;35163;48.878;18.040;2023-06-04T03:52:07;98668.25;;;13.81;56.52
49297;BME280;35163;48.878;18.040;2023-06-04T03:54:36;98666.56;;;13.80;56.68
49297;BME280;35163;48.878;18.040;2023-06-04T03:57:03;98672.41;;;13.85;56.66
49297;BME280;35163;48.878;18.040;2023-06-04T03:59:30;98682.75;;;13.87;56.62
49297;BME280;35163;48.878;18.040;2023-06-04T04:01:57;98678.50;;;13.84;57.20
49297;BME280;35163;48.878;18.040;2023-06-04T04:04:24;98686.25;;;13.86;57.01
49297;BME280;35163;48.878;18.040;2023-06-04T04:06:51;98693.31;;;13.82;57.46
49297;BME280;35163;48.878;18.040;2023-06-04T04:09:17;98690.50;;;13.89;57.49
49297;BME280;35163;48.878;18.040;2023-06-04T04:11:44;98692.88;;;13.93;57.45
49297;BME280;35163;48.878;18.040;2023-06-04T04:14:11;98688.53;;;13.94;57.35
49297;BME280;35163;48.878;18.040;2023-06-04T04:16:37;98681.56;;;13.94;57.60
49297;BME280;35163;48.878;18.040;2023-06-04T04:19:04;98677.94;;;13.99;57.89
49297;BME280;35163;48.878;18.040;2023-06-04T04:21:35;98676.97;;;14.01;57.88
49297;BME280;35163;48.878;18.040;2023-06-04T04:24:03;98683.59;;;14.08;57.27
49297;BME280;35163;48.878;18.040;2023-06-04T04:26:30;98680.03;;;14.11;57.52
49297;BME280;35163;48.878;18.040;2023-06-04T04:28:57;98673.78;;;14.15;58.31
49297;BME280;35163;48.878;18.040;2023-06-04T04:31:25;98685.13;;;14.14;57.33
49297;BME280;35163;48.878;18.040;2023-06-04T04:33:54;98680.69;;;14.16;57.94
49297;BME280;35163;48.878;18.040;2023-06-04T04:36:21;98679.66;;;14.20;58.20
49297;BME280;35163;48.878;18.040;2023-06-04T04:38:50;98681.16;;;14.26;58.15
49297;BME280;35163;48.878;18.040;2023-06-04T04:41:21;98679.41;;;14.27;59.09
49297;BME280;35163;48.878;18.040;2023-06-04T04:43:52;98678.84;;;14.39;59.46
49297;BME280;35163;48.878;18.040;2023-06-04T04:46:18;98684.91;;;14.40;59.03
49297;BME280;35163;48.878;18.040;2023-06-04T04:48:45;98686.34;;;14.47;58.92
49297;BME280;35163;48.878;18.040;2023-06-04T04:51:12;98672.13;;;14.54;57.36
49297;BME280;35163;48.878;18.040;2023-06-04T04:53:41;98669.91;;;14.66;52.51
49297;BME280;35163;48.878;18.040;2023-06-04T04:56:09;98671.06;;;14.79;50.94
49297;BME280;35163;48.878;18.040;2023-06-04T04:58:38;98670.53;;;14.92;51.61
49297;BME280;35163;48.878;18.040;2023-06-04T05:01:05;98673.56;;;15.02;50.35
49297;BME280;35163;48.878;18.040;2023-06-04T05:03:32;98663.78;;;15.07;52.14
49297;BME280;35163;48.878;18.040;2023-06-04T05:06:01;98668.69;;;15.13;53.73
49297;BME280;35163;48.878;18.040;2023-06-04T05:08:28;98673.13;;;15.30;54.69
49297;BME280;35163;48.878;18.040;2023-06-04T05:10:55;98676.69;;;15.47;54.37
49297;BME280;35163;48.878;18.040;2023-06-04T05:13:21;98667.84;;;15.69;52.98
49297;BME280;35163;48.878;18.040;2023-06-04T05:15:50;98672.16;;;16.06;52.66
49297;BME280;35163;48.878;18.040;2023-06-04T05:18:19;98666.41;;;16.34;51.71
49297;BME280;35163;48.878;18.040;2023-06-04T05:20:55;98664.09;;;16.46;50.62
49297;BME280;35163;48.878;18.040;2023-06-04T05:23:22;98658.69;;;16.49;50.10
49297;BME280;35163;48.878;18.040;2023-06-04T05:25:48;98662.69;;;16.56;46.37
49297;BME280;35163;48.878;18.040;2023-06-04T05:28:15;98672.88;;;17.11;48.31
49297;BME280;35163;48.878;18.040;2023-06-04T05:30:42;98667.19;;;17.67;47.46
49297;BME280;35163;48.878;18.040;2023-06-04T05:33:10;98668.31;;;18.25;45.37
49297;BME280;35163;48.878;18.040;2023-06-04T05:35:49;98678.59;;;18.86;44.36
49297;BME280;35163;48.878;18.040;2023-06-04T05:38:16;98680.69;;;19.38;43.80
49297;BME280;35163;48.878;18.040;2023-06-04T05:40:44;98683.78;;;19.85;42.43
49297;BME280;35163;48.878;18.040;2023-06-04T05:43:11;98688.94;;;20.40;41.54
49297;BME280;35163;48.878;18.040;2023-06-04T05:45:37;98677.88;;;20.87;40.61
49297;BME280;35163;48.878;18.040;2023-06-04T05:48:05;98693.06;;;21.21;39.32
49297;BME280;35163;48.878;18.040;2023-06-04T05:50:32;98689.84;;;21.67;38.58
49297;BME280;35163;48.878;18.040;2023-06-04T05:52:58;98686.88;;;22.07;37.67
49297;BME280;35163;48.878;18.040;2023-06-04T05:55:25;98689.69;;;22.40;36.18
49297;BME280;35163;48.878;18.040;2023-06-04T05:57:52;98691.66;;;22.61;35.05
49297;BME280;35163;48.878;18.040;2023-06-04T06:00:19;98691.66;;;22.73;35.43
49297;BME280;35163;48.878;18.040;2023-06-04T06:02:46;98695.25;;;22.83;34.78
49297;BME280;35163;48.878;18.040;2023-06-04T06:05:17;98690.84;;;22.84;33.35
49297;BME280;35163;48.878;18.040;2023-06-04T06:07:44;98697.28;;;22.79;33.90
49297;BME280;35163;48.878;18.040;2023-06-04T06:10:12;98709.50;;;22.80;34.76
49297;BME280;35163;48.878;18.040;2023-06-04T06:12:39;98710.59;;;22.78;33.93
49297;BME280;35163;48.878;18.040;2023-06-04T06:15:06;98709.75;;;22.77;33.73
49297;BME280;35163;48.878;18.040;2023-06-04T06:17:38;98717.41;;;22.69;33.56
49297;BME280;35163;48.878;18.040;2023-06-04T06:20:05;98714.88;;;22.56;33.02
49297;BME280;35163;48.878;18.040;2023-06-04T06:22:35;98712.13;;;22.57;33.63
49297;BME280;35163;48.878;18.040;2023-06-04T06:25:02;98714.88;;;22.56;33.47
49297;BME280;35163;48.878;18.040;2023-06-04T06:27:31;98712.84;;;22.60;33.29
49297;BME280;35163;48.878;18.040;2023-06-04T06:29:58;98711.88;;;22.61;32.97
49297;BME280;35163;48.878;18.040;2023-06-04T06:32:25;98707.34;;;22.63;32.53
49297;BME280;35163;48.878;18.040;2023-06-04T06:34:52;98711.91;;;22.84;33.44
49297;BME280;35163;48.878;18.040;2023-06-04T06:37:21;98708.91;;;23.00;33.34
49297;BME280;35163;48.878;18.040;2023-06-04T06:39:48;98709.72;;;23.12;33.24
49297;BME280;35163;48.878;18.040;2023-06-04T06:42:15;98708.25;;;23.30;33.38
49297;BME280;35163;48.878;18.040;2023-06-04T06:44:46;98709.09;;;23.42;33.49
49297;BME280;35163;48.878;18.040;2023-06-04T06:47:13;98712.41;;;23.56;33.68
49297;BME280;35163;48.878;18.040;2023-06-04T06:49:40;98708.25;;;23.75;33.79
49297;BME280;35163;48.878;18.040;2023-06-04T06:52:07;98710.22;;;23.94;34.16
49297;BME280;35163;48.878;18.040;2023-06-04T06:54:34;98709.53;;;24.13;33.79
49297;BME280;35163;48.878;18.040;2023-06-04T06:57:01;98716.34;;;24.27;33.17
49297;BME280;35163;48.878;18.040;2023-06-04T06:59:29;98712.84;;;24.48;33.27
49297;BME280;35163;48.878;18.040;2023-06-04T07:01:58;98717.78;;;24.63;32.64
49297;BME280;35163;48.878;18.040;2023-06-04T07:04:28;98728.00;;;24.78;32.93
49297;BME280;35163;48.878;18.040;2023-06-04T07:06:54;98717.78;;;24.94;32.59
49297;BME280;35163;48.878;18.040;2023-06-04T07:09:24;98721.19;;;25.16;32.94
49297;BME280;35163;48.878;18.040;2023-06-04T07:11:50;98724.16;;;25.33;32.78
49297;BME280;35163;48.878;18.040;2023-06-04T07:14:17;98721.53;;;25.43;31.87
49297;BME280;35163;48.878;18.040;2023-06-04T07:16:44;98721.13;;;25.57;31.90
49297;BME280;35163;48.878;18.040;2023-06-04T07:19:10;98720.72;;;25.62;30.22
49297;BME280;35163;48.878;18.040;2023-06-04T07:21:37;98723.56;;;25.70;30.09
49297;BME280;35163;48.878;18.040;2023-06-04T07:24:04;98728.13;;;25.88;30.48
49297;BME280;35163;48.878;18.040;2023-06-04T07:26:32;98715.03;;;25.96;30.62
49297;BME280;35163;48.878;18.040;2023-06-04T07:29:00;98715.84;;;26.07;29.61
49297;BME280;35163;48.878;18.040;2023-06-04T07:31:29;98714.59;;;26.11;29.46
49297;BME280;35163;48.878;18.040;2023-06-04T07:33:56;98708.31;;;26.12;30.52
49297;BME280;35163;48.878;18.040;2023-06-04T07:36:23;98708.19;;;26.24;30.49
49297;BME280;35163;48.878;18.040;2023-06-04T07:38:49;98713.06;;;26.18;28.66
49297;BME280;35163;48.878;18.040;2023-06-04T07:41:16;98713.19;;;26.27;29.15
49297;BME280;35163;48.878;18.040;2023-06-04T07:43:43;98720.84;;;26.40;29.33
49297;BME280;35163;48.878;18.040;2023-06-04T07:46:10;98724.03;;;26.53;28.85
49297;BME280;35163;48.878;18.040;2023-06-04T07:48:37;98724.13;;;26.62;28.97
49297;BME280;35163;48.878;18.040;2023-06-04T07:51:04;98720.66;;;26.61;28.17
49297;BME280;35163;48.878;18.040;2023-06-04T07:53:31;98726.53;;;26.55;28.35
49297;BME280;35163;48.878;18.040;2023-06-04T07:55:58;98729.31;;;26.53;29.47
49297;BME280;35163;48.878;18.040;2023-06-04T07:58:24;98735.22;;;26.47;29.64
49297;BME280;35163;48.878;18.040;2023-06-04T08:00:54;98740.53;;;26.37;30.10
49297;BME280;35163;48.878;18.040;2023-06-04T08:03:23;98729.38;;;26.33;29.52
49297;BME280;35163;48.878;18.040;2023-06-04T08:05:51;98733.84;;;26.13;28.92
49297;BME280;35163;48.878;18.040;2023-06-04T08:08:18;98736.50;;;26.13;28.58
49297;BME280;35163;48.878;18.040;2023-06-04T08:10:44;98736.34;;;26.05;28.04
49297;BME280;35163;48.878;18.040;2023-06-04T08:13:11;98742.22;;;25.99;28.75
49297;BME280;35163;48.878;18.040;2023-06-04T08:15:38;98735.41;;;25.96;29.24
49297;BME280;35163;48.878;18.040;2023-06-04T08:18:05;98739.84;;;25.76;30.41
49297;BME280;35163;48.878;18.040;2023-06-04T08:20:32;98739.53;;;25.59;32.01
49297;BME280;35163;48.878;18.040;2023-06-04T08:22:59;98740.09;;;25.63;31.13
49297;BME280;35163;48.878;18.040;2023-06-04T08:25:26;98744.38;;;25.54;30.41
49297;BME280;35163;48.878;18.040;2023-06-04T08:27:53;98748.31;;;25.50;30.23
49297;BME280;35163;48.878;18.040;2023-06-04T08:30:19;98743.81;;;25.50;30.97
49297;BME280;35163;48.878;18.040;2023-06-04T08:32:46;98749.66;;;25.34;31.18
49297;BME280;35163;48.878;18.040;2023-06-04T08:35:13;98740.44;;;25.28;31.83
49297;BME280;35163;48.878;18.040;2023-06-04T08:37:40;98736.00;;;25.29;32.92
49297;BME280;35163;48.878;18.040;2023-06-04T08:40:07;98737.22;;;25.24;31.46
49297;BME280;35163;48.878;18.040;2023-06-04T08:42:41;98744.16;;;25.16;32.23
49297;BME280;35163;48.878;18.040;2023-06-04T08:45:13;98744.88;;;25.18;32.45
49297;BME280;35163;48.878;18.040;2023-06-04T08:47:44;98748.97;;;25.00;31.32
49297;BME280;35163;48.878;18.040;2023-06-04T08:50:17;98747.31;;;24.99;32.43
49297;BME280;35163;48.878;18.040;2023-06-04T08:52:44;98749.53;;;24.94;31.70
49297;BME280;35163;48.878;18.040;2023-06-04T08:55:14;98756.75;;;24.92;31.68
49297;BME280;35163;48.878;18.040;2023-06-04T08:57:40;98763.38;;;24.86;31.92
49297;BME280;35163;48.878;18.040;2023-06-04T09:00:08;98768.09;;;24.83;31.28
49297;BME280;35163;48.878;18.040;2023-06-04T09:02:38;98764.72;;;24.71;31.23
49297;BME280;35163;48.878;18.040;2023-06-04T09:05:06;98769.88;;;24.72;33.18
49297;BME280;35163;48.878;18.040;2023-06-04T09:07:36;98767.22;;;24.72;33.27
49297;BME280;35163;48.878;18.040;2023-06-04T09:10:04;98766.94;;;24.75;33.35
49297;BME280;35163;48.878;18.040;2023-06-04T09:12:42;98776.41;;;24.78;34.18
49297;BME280;35163;48.878;18.040;2023-06-04T09:15:10;98776.13;;;24.81;33.45
49297;BME280;35163;48.878;18.040;2023-06-04T09:17:37;98776.84;;;24.83;33.34
49297;BME280;35163;48.878;18.040;2023-06-04T09:20:07;98782.53;;;24.79;30.68
49297;BME280;35163;48.878;18.040;2023-06-04T09:22:36;98784.75;;;24.73;30.21
49297;BME280;35163;48.878;18.040;2023-06-04T09:25:06;98785.00;;;24.70;30.19
49297;BME280;35163;48.878;18.040;2023-06-04T09:27:44;98784.28;;;24.68;30.94
49297;BME280;35163;48.878;18.040;2023-06-04T09:30:11;98782.88;;;24.64;31.25
49297;BME280;35163;48.878;18.040;2023-06-04T09:32:38;98783.25;;;24.59;31.60
49297;BME280;35163;48.878;18.040;2023-06-04T09:35:16;98771.97;;;24.57;31.69
49297;BME280;35163;48.878;18.040;2023-06-04T09:37:54;98778.81;;;24.60;30.55
49297;BME280;35163;48.878;18.040;2023-06-04T09:40:22;98774.31;;;24.50;30.73
49297;BME280;35163;48.878;18.040;2023-06-04T09:42:50;98781.72;;;24.57;31.18
49297;BME280;35163;48.878;18.040;2023-06-04T09:47:55;98765.38;;;24.73;31.13
49297;BME280;35163;48.878;18.040;2023-06-04T09:50:26;98772.53;;;24.82;31.49
49297;BME280;35163;48.878;18.040;2023-06-04T09:52:54;98764.22;;;24.87;31.11
49297;BME280;35163;48.878;18.040;2023-06-04T09:55:21;98769.22;;;24.90;30.71
49297;BME280;35163;48.878;18.040;2023-06-04T09:57:50;98769.69;;;24.95;31.39
49297;BME280;35163;48.878;18.040;2023-06-04T10:00:19;98767.91;;;24.96;29.70
49297;BME280;35163;48.878;18.040;2023-06-04T10:02:48;98767.06;;;24.95;30.58
49297;BME280;35163;48.878;18.040;2023-06-04T10:05:16;98768.75;;;24.96;30.93
49297;BME280;35163;48.878;18.040;2023-06-04T10:07:46;98769.00;;;24.93;30.41
49297;BME280;35163;48.878;18.040;2023-06-04T10:10:17;98763.13;;;24.90;29.68
49297;BME280;35163;48.878;18.040;2023-06-04T10:12:49;98770.06;;;24.91;30.07
49297;BME280;35163;48.878;18.040;2023-06-04T10:15:17;98773.06;;;24.97;31.14
49297;BME280;35163;48.878;18.040;2023-06-04T10:17:44;98767.94;;;25.06;31.42
49297;BME280;35163;48.878;18.040;2023-06-04T10:20:11;98772.94;;;25.09;31.18
49297;BME280;35163;48.878;18.040;2023-06-04T10:22:38;98781.44;;;25.03;30.60
49297;BME280;35163;48.878;18.040;2023-06-04T10:25:06;98781.69;;;24.99;29.98
49297;BME280;35163;48.878;18.040;2023-06-04T10:27:36;98780.56;;;24.92;29.40
49297;BME280;35163;48.878;18.040;2023-06-04T10:30:04;98784.19;;;24.91;30.29
49297;BME280;35163;48.878;18.040;2023-06-04T10:32:31;98784.19;;;24.91;30.59
49297;BME280;35163;48.878;18.040;2023-06-04T10:34:58;98793.16;;;24.88;30.95
49297;BME280;35163;48.878;18.040;2023-06-04T10:37:25;98786.84;;;24.80;29.93
49297;BME280;35163;48.878;18.040;2023-06-04T10:39:54;98796.47;;;24.81;30.10
49297;BME280;35163;48.878;18.040;2023-06-04T10:42:22;98797.28;;;24.81;30.38
49297;BME280;35163;48.878;18.040;2023-06-04T10:44:54;98794.53;;;24.83;30.98
49297;BME280;35163;48.878;18.040;2023-06-04T10:47:27;98784.78;;;24.83;31.48
49297;BME280;35163;48.878;18.040;2023-06-04T10:50:10;98801.94;;;24.89;31.76
49297;BME280;35163;48.878;18.040;2023-06-04T10:52:38;98802.22;;;24.86;30.06
49297;BME280;35163;48.878;18.040;2023-06-04T10:55:07;98799.84;;;24.83;29.73
49297;BME280;35163;48.878;18.040;2023-06-04T10:57:34;98795.50;;;24.82;30.83
49297;BME280;35163;48.878;18.040;2023-06-04T11:00:02;98799.25;;;24.79;30.58
49297;BME280;35163;48.878;18.040;2023-06-04T11:02:32;98789.63;;;24.78;31.51
49297;BME280;35163;48.878;18.040;2023-06-04T11:05:06;98789.03;;;24.74;30.63
49297;BME280;35163;48.878;18.040;2023-06-04T11:07:47;98790.13;;;24.62;31.58
49297;BME280;35163;48.878;18.040;2023-06-04T11:10:15;98791.66;;;24.64;33.05
49297;BME280;35163;48.878;18.040;2023-06-04T11:12:49;98793.84;;;24.59;32.06
49297;BME280;35163;48.878;18.040;2023-06-04T11:15:19;98791.00;;;24.51;31.73
49297;BME280;35163;48.878;18.040;2023-06-04T11:17:53;98790.69;;;24.44;32.15
49297;BME280;35163;48.878;18.040;2023-06-04T11:20:20;98791.66;;;24.43;32.81
49297;BME280;35163;48.878;18.040;2023-06-04T11:22:51;98795.78;;;24.36;32.33
49297;BME280;35163;48.878;18.040;2023-06-04T11:25:18;98795.06;;;24.34;32.34
49297;BME280;35163;48.878;18.040;2023-06-04T11:27:46;98798.81;;;24.31;32.53
49297;BME280;35163;48.878;18.040;2023-06-04T11:30:13;98798.94;;;24.30;32.17
49297;BME280;35163;48.878;18.040;2023-06-04T11:32:41;98795.13;;;24.22;33.46
49297;BME280;35163;48.878;18.040;2023-06-04T11:35:08;98802.06;;;24.23;32.66
49297;BME280;35163;48.878;18.040;2023-06-04T11:37:34;98804.84;;;24.22;33.07
49297;BME280;35163;48.878;18.040;2023-06-04T11:40:02;98801.25;;;24.11;32.54
49297;BME280;35163;48.878;18.040;2023-06-04T11:42:31;98801.25;;;24.11;33.14
49297;BME280;35163;48.878;18.040;2023-06-04T11:44:58;98810.31;;;23.97;32.88
49297;BME280;35163;48.878;18.040;2023-06-04T11:47:25;98811.03;;;23.99;32.98
49297;BME280;35163;48.878;18.040;2023-06-04T11:49:55;98805.53;;;23.91;33.33
49297;BME280;35163;48.878;18.040;2023-06-04T11:52:23;98810.81;;;23.91;33.67
49297;BME280;35163;48.878;18.040;2023-06-04T11:54:50;98816.72;;;23.83;33.60
49297;BME280;35163;48.878;18.040;2023-06-04T11:57:17;98815.41;;;23.77;34.43
49297;BME280;35163;48.878;18.040;2023-06-04T11:59:44;98818.31;;;23.74;33.91
49297;BME280;35163;48.878;18.040;2023-06-04T12:02:11;98815.31;;;23.67;33.55
49297;BME280;35163;48.878;18.040;2023-06-04T12:04:38;98826.81;;;23.66;33.58
49297;BME280;35163;48.878;18.040;2023-06-04T12:07:05;98819.78;;;23.56;33.69
49297;BME280;35163;48.878;18.040;2023-06-04T12:09:33;98821.56;;;23.55;35.17
49297;BME280;35163;48.878;18.040;2023-06-04T12:12:06;98823.72;;;23.50;35.08
49297;BME280;35163;48.878;18.040;2023-06-04T12:14:33;98824.34;;;23.53;35.57
49297;BME280;35163;48.878;18.040;2023-06-04T12:17:02;98822.63;;;23.52;35.13
49297;BME280;35163;48.878;18.040;2023-06-04T12:19:32;98830.19;;;23.46;34.98
49297;BME280;35163;48.878;18.040;2023-06-04T12:22:05;98834.91;;;23.42;35.60
49297;BME280;35163;48.878;18.040;2023-06-04T12:24:33;98827.31;;;23.37;35.64
49297;BME280;35163;48.878;18.040;2023-06-04T12:27:08;98837.25;;;23.34;36.01
49297;BME280;35163;48.878;18.040;2023-06-04T12:29:38;98832.34;;;23.29;37.17
49297;BME280;35163;48.878;18.040;2023-06-04T12:32:07;98835.72;;;23.31;36.95
49297;BME280;35163;48.878;18.040;2023-06-04T12:34:38;98832.72;;;23.24;36.38
49297;BME280;35163;48.878;18.040;2023-06-04T12:37:05;98825.97;;;23.20;36.88
49297;BME280;35163;48.878;18.040;2023-06-04T12:39:34;98829.97;;;23.14;36.83
49297;BME280;35163;48.878;18.040;2023-06-04T12:42:05;98828.25;;;23.13;37.67
49297;BME280;35163;48.878;18.040;2023-06-04T12:44:33;98823.47;;;23.07;37.79
49297;BME280;35163;48.878;18.040;2023-06-04T12:47:02;98821.66;;;22.96;37.49
49297;BME280;35163;48.878;18.040;2023-06-04T12:49:29;98826.31;;;22.92;38.28
49297;BME280;35163;48.878;18.040;2023-06-04T12:51:56;98825.94;;;22.86;38.27
49297;BME280;35163;48.878;18.040;2023-06-04T12:54:22;98826.19;;;22.82;37.57
49297;BME280;35163;48.878;18.040;2023-06-04T12:56:49;98826.69;;;22.76;38.79
49297;BME280;35163;48.878;18.040;2023-06-04T12:59:16;98831.94;;;22.76;39.05
49297;BME280;35163;48.878;18.040;2023-06-04T13:01:43;98824.78;;;22.78;39.23